Time;durP1;ratioP1;P1;durP2;ratioP2;P2;SDS_P1;SDS_P2;PMS_P1;PMS_P2;Temp;Humidity;BMP_temperature;BMP_pressure;BME280_temperature;BME280_humidity;BME280_pressure;Samples;Min_cycle;Max_cycle;Signal;HPM_P1;HPM_P2
2021/09/01 00:01:53;;;;;;;7.03;5.95;;;;;;;12.65;79.56;101219.34;1630803;87;21104;-78
2021/09/01 00:04:20;;;;;;;10.98;6.10;;;;;;;12.62;79.49;101225.43;1636686;86;21045;-78
2021/09/01 00:06:46;;;;;;;9.43;6.17;;;;;;;12.59;79.64;101228.07;1635845;87;21113;-78
2021/09/01 00:09:13;;;;;;;9.03;6.67;;;;;;;12.57;79.59;101226.79;1613418;87;21101;-78
2021/09/01 00:11:39;;;;;;;8.60;6.05;;;;;;;12.56;79.65;101223.78;1610559;87;21071;-78
2021/09/01 00:14:06;;;;;;;7.10;5.90;;;;;;;12.54;79.67;101227.27;1627908;87;21065;-78
2021/09/01 00:16:32;;;;;;;8.73;6.03;;;;;;;12.51;79.66;101228.17;1610416;88;21078;-78
2021/09/01 00:19:06;;;;;;;6.72;5.33;;;;;;;12.48;79.73;101230.81;1610269;89;21105;-78
2021/09/01 00:21:34;;;;;;;10.13;5.67;;;;;;;12.48;79.65;101228.66;1610380;87;21073;-79
2021/09/01 00:24:00;;;;;;;8.18;5.90;;;;;;;12.45;79.74;101228.29;1609747;87;21377;-79
2021/09/01 00:26:27;;;;;;;8.58;5.87;;;;;;;12.46;79.83;101227.41;1636426;86;21565;-79
2021/09/01 00:28:53;;;;;;;9.18;6.12;;;;;;;12.47;79.85;101233.02;1637925;87;20915;-79
2021/09/01 00:31:20;;;;;;;10.35;6.25;;;;;;;12.48;79.96;101226.92;1638078;87;20962;-79
2021/09/01 00:33:47;;;;;;;6.08;5.50;;;;;;;12.49;79.97;101231.23;1655528;86;20982;-79
2021/09/01 00:36:14;;;;;;;10.58;4.97;;;;;;;12.48;79.90;101231.25;1616172;87;20899;-79
2021/09/01 00:38:40;;;;;;;9.70;5.87;;;;;;;12.48;79.88;101229.52;1630532;86;25078;-79
2021/09/01 00:41:07;;;;;;;12.85;5.62;;;;;;;12.47;80.02;101234.31;1636509;87;22885;-79
2021/09/01 00:43:33;;;;;;;10.50;5.75;;;;;;;12.48;80.03;101237.30;1626346;86;20980;-79
2021/09/01 00:46:00;;;;;;;10.93;5.47;;;;;;;12.49;80.06;101238.16;1622546;86;21089;-79
2021/09/01 00:48:26;;;;;;;13.08;5.55;;;;;;;12.50;80.10;101238.57;1612701;87;21077;-79
2021/09/01 00:50:58;;;;;;;9.05;5.20;;;;;;;12.52;80.15;101235.52;1612974;87;25030;-79
2021/09/01 00:53:26;;;;;;;9.13;5.10;;;;;;;12.53;80.19;101238.09;1612244;88;21068;-79
2021/09/01 00:55:53;;;;;;;7.70;5.75;;;;;;;12.55;80.19;101244.11;1612784;87;21078;-79
2021/09/01 00:58:28;;;;;;;7.08;5.42;;;;;;;12.55;80.16;101244.11;1612409;87;21065;-79
2021/09/01 01:01:15;;;;;;;9.03;5.03;;;;;;;12.55;80.22;101240.22;1620315;87;20954;-79
2021/09/01 01:03:32;;;;;;;6.05;5.12;;;;;;;12.55;80.19;101235.03;1641397;86;21090;-79
2021/09/01 01:05:59;;;;;;;5.42;4.60;;;;;;;12.54;80.22;101239.80;1640174;86;21058;-79
2021/09/01 01:08:30;;;;;;;8.98;5.20;;;;;;;12.52;80.27;101237.67;1640540;86;21109;-79
2021/09/01 01:11:01;;;;;;;12.00;5.58;;;;;;;12.54;80.31;101242.84;1619543;86;20950;-79
2021/09/01 01:13:29;;;;;;;9.08;5.58;;;;;;;12.53;80.32;101235.94;1592804;88;21097;-79
2021/09/01 01:15:59;;;;;;;7.03;5.15;;;;;;;12.53;80.31;101235.94;1620233;85;21062;-79
2021/09/01 01:18:25;;;;;;;5.42;4.72;;;;;;;12.51;80.34;101230.77;1618230;87;21552;-79
2021/09/01 01:20:53;;;;;;;6.28;5.22;;;;;;;12.51;80.36;101233.36;1638584;85;21141;-79
2021/09/01 01:23:25;;;;;;;8.90;4.80;;;;;;;12.49;80.40;101236.42;1619925;85;21111;-79
2021/09/01 01:25:52;;;;;;;6.53;5.50;;;;;;;12.48;80.40;101238.59;1635324;85;25748;-79
2021/09/01 01:28:18;;;;;;;8.73;5.17;;;;;;;12.48;80.50;101235.14;1629096;85;21133;-79
2021/09/01 01:30:48;;;;;;;7.08;4.83;;;;;;;12.47;80.46;101231.72;1619308;85;21511;-79
2021/09/01 01:33:14;;;;;;;8.48;5.20;;;;;;;12.46;80.44;101223.96;1634512;84;21119;-79
2021/09/01 01:35:44;;;;;;;9.05;4.78;;;;;;;12.45;80.61;101228.29;1627239;85;26606;-79
2021/09/01 01:38:21;;;;;;;7.20;4.78;;;;;;;12.48;80.64;101232.55;1622853;86;21404;-79
2021/09/01 01:40:48;;;;;;;12.95;5.08;;;;;;;12.46;80.61;101233.04;1635381;85;21001;-79
2021/09/01 01:43:15;;;;;;;6.30;4.62;;;;;;;12.47;80.67;101235.61;1634737;85;20978;-79
2021/09/01 01:45:46;;;;;;;6.20;5.12;;;;;;;12.46;80.70;101232.60;1636963;86;21056;-79
2021/09/01 01:48:16;;;;;;;9.15;5.55;;;;;;;12.47;80.72;101235.61;1637888;85;20958;-78
2021/09/01 01:50:44;;;;;;;9.10;6.05;;;;;;;12.48;80.79;101231.25;1663552;85;21054;-78
2021/09/01 01:53:11;;;;;;;10.68;6.62;;;;;;;12.46;80.74;101231.74;1642361;84;20982;-78
2021/09/01 01:55:37;;;;;;;17.27;6.25;;;;;;;12.45;80.84;101239.97;1627930;85;21081;-78
2021/09/01 01:58:03;;;;;;;10.03;6.28;;;;;;;12.45;80.84;101235.22;1615502;87;21086;-78
2021/09/01 02:00:30;;;;;;;12.35;5.95;;;;;;;12.46;80.91;101247.31;1635889;86;21136;-78
2021/09/01 02:02:56;;;;;;;8.80;6.95;;;;;;;12.46;80.76;101238.23;1641678;85;21050;-78
2021/09/01 02:05:22;;;;;;;9.35;5.87;;;;;;;12.46;80.93;101239.53;1633196;85;21085;-78
2021/09/01 02:07:49;;;;;;;9.80;6.75;;;;;;;12.46;80.87;101243.42;1635296;86;21090;-78
2021/09/01 02:10:15;;;;;;;11.28;6.80;;;;;;;12.44;80.93;101251.22;1637278;86;21452;-78
2021/09/01 02:12:42;;;;;;;10.65;6.35;;;;;;;12.44;81.03;101253.81;1633113;86;21083;-78
2021/09/01 02:15:10;;;;;;;;;;;;;;;12.45;81.04;101258.56;1628387;86;21115;-78
2021/09/01 02:17:38;;;;;;;10.23;6.40;;;;;;;12.46;81.20;101270.65;1626271;85;20181;-78
2021/09/01 02:20:07;;;;;;;14.95;7.15;;;;;;;12.43;81.05;101265.06;1625073;85;20901;-78
2021/09/01 02:22:35;;;;;;;14.78;7.17;;;;;;;12.41;81.07;101260.34;1638379;85;21357;-78
2021/09/01 02:25:02;;;;;;;9.98;6.95;;;;;;;12.41;81.10;101267.26;1629009;86;20900;-78
2021/09/01 02:27:28;;;;;;;;;;;;;;;12.42;81.12;101265.09;1637994;85;21380;-78
2021/09/01 02:29:57;;;;;;;8.93;5.92;;;;;;;12.41;81.32;101272.45;1635638;85;20106;-78
2021/09/01 02:32:23;;;;;;;;;;;;;;;12.39;81.23;101272.47;1641603;85;20955;-78
2021/09/01 02:34:50;;;;;;;10.98;6.50;;;;;;;12.37;81.35;101275.95;1633767;85;20102;-78
2021/09/01 02:37:16;;;;;;;8.40;6.55;;;;;;;12.34;81.21;101276.85;1632397;85;21050;-78
2021/09/01 02:39:42;;;;;;;14.83;7.28;;;;;;;12.34;81.26;101276.00;1636039;86;20959;-78
2021/09/01 02:42:09;;;;;;;9.30;6.67;;;;;;;12.33;81.36;101278.17;1637537;86;20959;-78
2021/09/01 02:44:35;;;;;;;7.20;5.75;;;;;;;12.32;81.33;101276.45;1632257;85;20931;-78
2021/09/01 02:47:02;;;;;;;9.25;7.17;;;;;;;12.30;81.25;101278.20;1615196;87;21344;-78
2021/09/01 02:49:34;;;;;;;9.83;7.10;;;;;;;12.27;81.40;101284.29;1634987;86;20991;-78
2021/09/01 02:52:01;;;;;;;9.20;6.72;;;;;;;12.24;81.32;101281.30;1629920;86;20922;-78
2021/09/01 02:54:27;;;;;;;9.33;7.00;;;;;;;12.23;81.40;101282.61;1610352;87;20889;-78
2021/09/01 02:56:53;;;;;;;15.32;8.73;;;;;;;12.20;81.38;101278.31;1599454;87;20963;-78
2021/09/01 02:59:20;;;;;;;10.53;7.47;;;;;;;12.19;81.45;101274.44;1614048;87;20950;-78
2021/09/01 03:01:46;;;;;;;13.93;7.25;;;;;;;12.17;81.45;101274.91;1615400;87;21040;-78
2021/09/01 03:04:18;;;;;;;12.60;6.70;;;;;;;12.14;81.42;101273.64;1624042;85;21071;-78
2021/09/01 03:06:45;;;;;;;11.57;8.15;;;;;;;12.11;81.41;101274.97;1623321;86;21525;-78
2021/09/01 03:09:11;;;;;;;11.68;7.08;;;;;;;12.08;81.52;101278.45;1617593;86;21051;-78
2021/09/01 03:11:37;;;;;;;8.33;7.30;;;;;;;12.08;81.58;101277.60;1619268;86;21045;-78
2021/09/01 03:14:04;;;;;;;12.45;7.00;;;;;;;12.06;81.59;101275.02;1633713;86;21161;-78
2021/09/01 03:16:30;;;;;;;10.68;7.35;;;;;;;12.05;81.65;101279.79;1631515;86;22035;-78
2021/09/01 03:18:56;;;;;;;9.30;7.42;;;;;;;12.04;81.65;101280.66;1619319;86;21565;-78
2021/09/01 03:21:23;;;;;;;10.95;7.12;;;;;;;12.04;81.75;101282.40;1626147;86;21057;-78
2021/09/01 03:23:49;;;;;;;15.93;7.55;;;;;;;12.04;81.75;101290.17;1607943;87;21083;-78
2021/09/01 03:26:15;;;;;;;10.65;7.17;;;;;;;12.03;81.76;101289.75;1609453;87;21087;-78
2021/09/01 03:28:46;;;;;;;10.68;6.62;;;;;;;11.99;81.61;101291.52;1620282;86;21057;-78
2021/09/01 03:31:12;;;;;;;13.83;8.45;;;;;;;11.97;81.70;101291.97;1623442;86;21550;-78
2021/09/01 03:33:38;;;;;;;11.55;7.60;;;;;;;11.95;81.79;101293.75;1638483;86;21161;-78
2021/09/01 03:36:05;;;;;;;9.80;7.20;;;;;;;11.93;81.77;101292.91;1608523;87;21076;-78
2021/09/01 03:38:31;;;;;;;9.40;6.42;;;;;;;11.92;81.79;101293.78;1626855;86;21874;-78
2021/09/01 03:40:59;;;;;;;11.53;7.15;;;;;;;11.91;81.82;101292.07;1622376;86;21064;-78
2021/09/01 03:43:25;;;;;;;10.03;6.85;;;;;;;11.89;81.81;101297.27;1626738;86;21536;-78
2021/09/01 03:45:54;;;;;;;11.12;7.10;;;;;;;11.88;81.83;101295.55;1639893;85;20981;-79
2021/09/01 03:48:19;;;;;;;9.08;6.08;;;;;;;11.88;81.94;101298.14;1628417;85;21365;-79
2021/09/01 03:50:45;;;;;;;10.10;7.10;;;;;;;11.89;81.99;101297.27;1632899;86;20914;-79
2021/09/01 03:53:13;;;;;;;11.20;7.08;;;;;;;11.89;81.95;101302.89;1627176;85;20925;-79
2021/09/01 03:55:41;;;;;;;10.35;6.90;;;;;;;11.88;81.97;101303.33;1626530;85;20946;-79
2021/09/01 03:58:07;;;;;;;10.65;6.70;;;;;;;11.87;81.98;101301.61;1617019;86;20897;-79
2021/09/01 04:00:33;;;;;;;8.28;6.33;;;;;;;11.86;82.00;101306.38;1634844;86;20950;-79
2021/09/01 04:03:01;;;;;;;9.78;6.37;;;;;;;11.86;82.00;101310.70;1634747;85;20958;-79
2021/09/01 04:05:27;;;;;;;11.78;6.72;;;;;;;11.85;82.04;101316.75;1626620;86;20997;-79
2021/09/01 04:07:54;;;;;;;8.50;6.83;;;;;;;11.84;82.08;101313.30;1627513;85;20956;-81
2021/09/01 04:10:23;;;;;;;7.62;5.83;;;;;;;11.85;82.12;101318.91;1636333;85;20918;-81
2021/09/01 04:12:49;;;;;;;9.38;6.12;;;;;;;11.87;82.19;101318.45;1631029;85;21054;-81
2021/09/01 04:15:15;;;;;;;10.63;5.67;;;;;;;11.87;82.11;101325.37;1632970;85;21290;-81
2021/09/01 04:17:44;;;;;;;8.15;6.22;;;;;;;11.85;82.16;101326.68;1619051;85;21049;-81
2021/09/01 04:20:11;;;;;;;8.68;6.22;;;;;;;11.85;82.23;101326.68;1634382;85;21114;-81
2021/09/01 04:22:38;;;;;;;8.48;5.45;;;;;;;11.87;82.26;101320.19;1628546;86;21070;-81
2021/09/01 04:25:05;;;;;;;;;;;;;;;11.88;82.19;101325.80;1659099;83;409855;-81
2021/09/01 04:27:31;;;;;;;10.08;5.70;;;;;;;11.86;82.40;101336.17;1692959;82;20209;-81
2021/09/01 04:29:58;;;;;;;8.63;5.97;;;;;;;11.86;82.22;101337.91;1698180;83;21052;-80
2021/09/01 04:32:24;;;;;;;9.50;6.03;;;;;;;11.84;82.20;101339.22;1700470;83;21035;-82
2021/09/01 04:34:50;;;;;;;7.95;5.75;;;;;;;11.85;82.32;101345.26;1635994;82;5000284;-82
2021/09/01 04:37:18;;;;;;;9.35;5.97;;;;;;;11.84;82.32;101351.31;1687081;83;21109;-82
2021/09/01 04:39:46;;;;;;;8.85;6.65;;;;;;;11.84;82.36;101349.58;1661000;84;21057;-82
2021/09/01 04:42:12;;;;;;;13.25;5.87;;;;;;;11.87;82.42;101348.26;1654902;84;21072;-82
2021/09/01 04:44:38;;;;;;;8.23;5.80;;;;;;;11.87;82.39;101359.05;1657868;84;21097;-82
2021/09/01 04:47:05;;;;;;;7.78;5.62;;;;;;;11.87;82.35;101357.77;1655122;83;21150;-81
2021/09/01 04:49:31;;;;;;;9.88;5.62;;;;;;;11.86;82.41;101361.23;1683846;83;21058;-81
2021/09/01 04:51:57;;;;;;;10.78;5.97;;;;;;;11.87;82.44;101362.51;1664333;84;21141;-81
2021/09/01 04:54:29;;;;;;;14.55;6.30;;;;;;;11.88;82.39;101369.41;1669143;83;20975;-81
2021/09/01 04:56:55;;;;;;;7.15;5.60;;;;;;;11.88;82.41;101372.44;1667153;83;20966;-81
2021/09/01 04:59:21;;;;;;;12.50;6.50;;;;;;;11.90;82.47;101379.33;1664279;83;21097;-81
2021/09/01 05:01:47;;;;;;;9.48;5.72;;;;;;;11.92;82.50;101378.02;1652528;84;21076;-81
2021/09/01 05:04:14;;;;;;;11.50;5.97;;;;;;;11.95;82.57;101377.13;1672671;83;21110;-81
2021/09/01 05:06:40;;;;;;;8.80;6.12;;;;;;;11.98;82.59;101377.93;1655290;84;21008;-81
2021/09/01 05:09:06;;;;;;;12.10;6.15;;;;;;;12.01;82.62;101385.67;1659814;84;21510;-81
2021/09/01 05:11:33;;;;;;;7.15;6.05;;;;;;;12.06;82.64;101384.34;1657660;84;21041;-81
2021/09/01 05:13:59;;;;;;;8.20;6.55;;;;;;;12.13;82.74;101384.70;1646459;85;20964;-81
2021/09/01 05:16:25;;;;;;;10.35;6.70;;;;;;;12.26;82.79;101381.97;1663968;84;21001;-81
2021/09/01 05:18:52;;;;;;;9.78;7.10;;;;;;;12.41;82.76;101383.98;1654915;85;21028;-81
2021/09/01 05:21:26;;;;;;;8.40;5.70;;;;;;;12.54;82.83;101392.86;1657761;84;21066;-81
2021/09/01 05:23:58;;;;;;;7.08;5.35;;;;;;;12.74;82.84;101390.47;1682355;84;21050;-81
2021/09/01 05:26:28;;;;;;;8.50;5.80;;;;;;;12.87;82.70;101394.63;1685372;84;21019;-81
2021/09/01 05:28:55;;;;;;;8.10;5.10;;;;;;;12.97;82.73;101391.48;1647714;85;21046;-81
2021/09/01 05:31:24;;;;;;;9.03;5.47;;;;;;;13.07;82.70;101390.45;1675547;82;21098;-81
2021/09/01 05:33:51;;;;;;;6.95;4.83;;;;;;;13.22;82.87;101391.56;1646343;85;21118;-81
2021/09/01 05:36:25;;;;;;;7.65;5.10;;;;;;;13.40;82.79;101384.80;1639785;83;21429;-81
2021/09/01 05:38:52;;;;;;;9.18;6.08;;;;;;;13.58;82.80;101387.08;1682145;83;21125;-81
2021/09/01 05:41:20;;;;;;;8.53;5.03;;;;;;;13.82;82.88;101383.23;1656583;84;21663;-81
2021/09/01 05:43:46;;;;;;;8.65;5.55;;;;;;;13.99;82.75;101389.87;1656924;84;21064;-81
2021/09/01 05:46:17;;;;;;;8.13;5.65;;;;;;;14.12;82.71;101388.30;1682620;83;21669;-81
2021/09/01 05:48:45;;;;;;;7.50;5.10;;;;;;;14.24;82.73;101390.68;1665145;84;21402;-81
2021/09/01 05:51:13;;;;;;;5.25;4.20;;;;;;;14.44;82.82;101396.84;1650508;84;21110;-81
2021/09/01 05:53:39;;;;;;;7.55;5.15;;;;;;;14.67;82.81;101387.69;1654710;84;21022;-81
2021/09/01 05:56:07;;;;;;;4.85;4.12;;;;;;;14.91;82.82;101387.18;1659522;84;21543;-81
2021/09/01 05:58:38;;;;;;;5.05;4.47;;;;;;;15.12;82.79;101389.73;1664158;84;20996;-81
2021/09/01 06:01:11;;;;;;;10.00;5.12;;;;;;;15.29;82.67;101384.14;1662097;84;21619;-81
2021/09/01 06:03:40;;;;;;;7.87;5.40;;;;;;;15.41;82.54;101386.47;1659600;84;20948;-81
2021/09/01 06:06:09;;;;;;;6.30;4.15;;;;;;;15.54;82.64;101389.19;1651740;84;21555;-81
2021/09/01 06:08:36;;;;;;;4.60;3.95;;;;;;;15.67;82.58;101394.97;1642947;84;21056;-81
2021/09/01 06:11:05;;;;;;;8.55;4.20;;;;;;;15.84;82.66;101393.66;1677885;83;20910;-81
2021/09/01 06:13:32;;;;;;;6.42;4.25;;;;;;;16.01;82.60;101388.46;1655395;84;20874;-81
2021/09/01 06:15:59;;;;;;;8.38;5.00;;;;;;;16.18;82.61;101397.53;1702362;82;21913;-82
2021/09/01 06:18:26;;;;;;;7.62;4.05;;;;;;;16.42;82.74;101398.63;1656809;84;21426;-82
2021/09/01 06:20:54;;;;;;;;;;;;;;;16.65;82.64;101402.34;1704396;83;21521;-82
2021/09/01 06:23:21;;;;;;;4.65;3.50;;;;;;;16.86;82.41;101405.20;1651007;84;20109;-82
2021/09/01 06:25:47;;;;;;;7.15;3.77;;;;;;;17.11;82.62;101411.01;1665603;84;21437;-82
2021/09/01 06:28:14;;;;;;;7.05;3.33;;;;;;;17.33;82.46;101400.72;1653429;84;21422;-82
2021/09/01 06:30:40;;;;;;;6.03;4.50;;;;;;;17.56;82.48;101398.23;1651192;84;26447;-82
2021/09/01 06:33:07;;;;;;;6.72;3.75;;;;;;;17.76;82.38;101405.43;1662819;84;21584;-82
2021/09/01 06:35:33;;;;;;;4.58;3.52;;;;;;;17.95;82.29;101405.67;1659680;84;20925;-82
2021/09/01 06:38:01;;;;;;;5.28;4.05;;;;;;;18.08;82.15;101404.35;1649802;85;21560;-82
2021/09/01 06:40:28;;;;;;;4.30;3.90;;;;;;;18.11;81.87;101405.55;1654037;84;21445;-82
2021/09/01 06:42:54;;;;;;;5.47;3.65;;;;;;;18.22;82.09;101411.70;1660950;84;20925;-82
2021/09/01 06:45:21;;;;;;;5.05;3.50;;;;;;;18.32;82.10;101408.70;1664473;83;23316;-82
2021/09/01 06:47:50;;;;;;;11.22;3.70;;;;;;;18.49;82.22;101410.72;1651166;84;21397;-82
2021/09/01 06:50:24;;;;;;;6.78;3.60;;;;;;;18.60;81.89;101407.30;1650405;84;21419;-82
2021/09/01 06:52:51;;;;;;;9.93;3.62;;;;;;;18.74;82.02;101413.31;1673258;84;21445;-82
2021/09/01 06:55:18;;;;;;;5.15;3.05;;;;;;;18.81;81.87;101414.80;1659027;84;21379;-82
2021/09/01 06:57:45;;;;;;;4.12;3.17;;;;;;;18.93;81.93;101420.03;1587633;86;21456;-82
2021/09/01 07:00:15;;;;;;;4.47;3.65;;;;;;;19.02;81.89;101417.92;1658277;84;20934;-82
2021/09/01 07:02:41;;;;;;;5.40;2.92;;;;;;;19.14;81.81;101416.14;1660074;84;21549;-82
2021/09/01 07:05:11;;;;;;;4.00;3.50;;;;;;;19.23;81.69;101420.63;1650858;84;21579;-82
2021/09/01 07:07:39;;;;;;;5.22;3.37;;;;;;;19.19;81.42;101425.14;1650673;84;21688;-82
2021/09/01 07:10:06;;;;;;;3.85;3.15;;;;;;;19.26;81.60;101433.13;1658865;84;20961;-82
2021/09/01 07:12:32;;;;;;;9.48;2.90;;;;;;;19.41;81.65;101437.78;1650976;84;20977;-82
2021/09/01 07:14:59;;;;;;;3.50;2.77;;;;;;;19.47;81.56;101439.30;1642651;84;21584;-81
2021/09/01 07:17:26;;;;;;;3.90;2.85;;;;;;;19.61;81.67;101438.79;1663670;84;21607;-81
2021/09/01 07:19:52;;;;;;;;;;;;;;;19.72;81.36;101441.38;1619353;86;21571;-81
2021/09/01 07:22:18;;;;;;;3.10;2.65;;;;;;;19.88;80.99;101444.66;1622441;86;20472;-81
2021/09/01 07:24:44;;;;;;;8.00;2.87;;;;;;;20.09;81.31;101440.68;1655169;84;21121;-81
2021/09/01 07:27:11;;;;;;;4.12;2.80;;;;;;;20.33;81.21;101449.25;1634322;86;21113;-81
2021/09/01 07:29:41;;;;;;;4.28;2.60;;;;;;;20.51;81.02;101449.41;1660530;84;21989;-81
2021/09/01 07:32:07;;;;;;;4.45;3.00;;;;;;;20.69;81.07;101451.23;1651923;84;21874;-81
2021/09/01 07:34:33;;;;;;;4.25;2.98;;;;;;;20.74;80.75;101462.39;1660514;84;21391;-81
2021/09/01 07:37:00;;;;;;;3.30;2.55;;;;;;;20.79;80.86;101452.06;1657709;84;21056;-81
2021/09/01 07:39:26;;;;;;;3.15;2.70;;;;;;;20.88;81.01;101450.77;1661685;84;21125;-81
2021/09/01 07:41:52;;;;;;;2.92;2.47;;;;;;;21.09;81.03;101454.19;1660371;84;21518;-81
2021/09/01 07:44:18;;;;;;;4.40;2.75;;;;;;;21.29;80.83;101450.66;1654841;84;21160;-81
2021/09/01 07:46:45;;;;;;;3.67;2.60;;;;;;;21.66;81.21;101445.77;1610057;86;21600;-81
2021/09/01 07:49:11;;;;;;;;;;;;;;;22.27;81.07;101448.84;1631907;86;20921;-82
2021/09/01 07:51:38;;;;;;;2.85;2.30;;;;;;;22.51;79.38;101453.73;1659199;84;20231;-82
2021/09/01 07:54:04;;;;;;;3.75;2.70;;;;;;;22.55;79.36;101456.13;1667133;84;21566;-82
2021/09/01 07:56:30;;;;;;;8.05;2.67;;;;;;;22.30;79.21;101456.58;1650946;85;21013;-82
2021/09/01 07:58:57;;;;;;;4.22;3.30;;;;;;;22.33;79.33;101452.47;1630399;86;21498;-81
2021/09/01 08:01:23;;;;;;;3.80;3.37;;;;;;;22.19;78.79;101464.18;1651358;85;21585;-81
2021/09/01 08:03:49;;;;;;;3.37;2.52;;;;;;;21.99;78.75;101464.30;1674898;84;21489;-81
2021/09/01 08:06:16;;;;;;;4.25;3.33;;;;;;;21.67;78.56;101442.22;1668350;84;21468;-81
2021/09/01 08:08:42;;;;;;;3.17;2.67;;;;;;;21.43;78.43;101463.98;1631787;85;20935;-81
2021/09/01 08:11:08;;;;;;;3.67;3.08;;;;;;;21.14;78.62;101462.72;1662507;84;20939;-81
2021/09/01 08:13:34;;;;;;;3.55;3.10;;;;;;;21.07;78.83;101466.09;1649168;85;21569;-81
2021/09/01 08:16:01;;;;;;;2.95;2.40;;;;;;;20.98;78.49;101469.14;1628884;86;21501;-81
2021/09/01 08:18:27;;;;;;;3.87;2.62;;;;;;;20.89;78.44;101472.19;1633318;86;20992;-81
2021/09/01 08:20:54;;;;;;;3.98;2.45;;;;;;;20.91;78.43;101475.59;1665614;84;20926;-81
2021/09/01 08:23:20;;;;;;;3.05;2.20;;;;;;;20.90;78.34;101476.52;1665068;85;20955;-81
2021/09/01 08:25:46;;;;;;;4.08;2.35;;;;;;;20.87;78.26;101478.44;1650947;84;20942;-81
2021/09/01 08:28:13;;;;;;;2.83;2.20;;;;;;;20.74;77.94;101480.33;1627272;85;20926;-81
2021/09/01 08:30:39;;;;;;;2.85;2.65;;;;;;;20.55;77.81;101480.73;1597039;86;21435;-81
2021/09/01 08:33:05;;;;;;;2.05;1.82;;;;;;;20.43;77.79;101482.58;1636255;84;20964;-81
2021/09/01 08:35:32;;;;;;;3.10;2.27;;;;;;;20.25;77.58;101476.34;1653891;84;20918;-81
2021/09/01 08:37:58;;;;;;;2.30;2.10;;;;;;;20.14;77.49;101482.05;1671197;84;20954;-81
2021/09/01 08:40:26;;;;;;;2.00;1.85;;;;;;;20.08;77.17;101478.36;1663774;85;20920;-81
2021/09/01 08:42:52;;;;;;;2.58;2.20;;;;;;;19.96;77.10;101483.26;1653995;84;20971;-79
2021/09/01 08:45:19;;;;;;;3.22;2.37;;;;;;;19.95;77.00;101482.41;1669744;84;20886;-79
2021/09/01 08:47:45;;;;;;;4.60;2.15;;;;;;;19.92;77.10;101476.42;1685697;83;21040;-79
2021/09/01 08:50:13;;;;;;;3.40;2.45;;;;;;;20.04;77.11;101479.41;1685162;83;21116;-79
2021/09/01 08:52:39;;;;;;;3.80;2.47;;;;;;;20.16;77.28;101480.20;1691400;83;21089;-79
2021/09/01 08:55:08;;;;;;;6.50;2.85;;;;;;;20.59;77.58;101484.09;1693422;83;21107;-79
2021/09/01 08:57:35;;;;;;;4.83;2.62;;;;;;;21.20;77.62;101480.84;1657665;84;20946;-76
2021/09/01 09:00:04;;;;;;;2.33;2.12;;;;;;;21.14;76.58;101489.02;1686532;83;26019;-76
2021/09/01 09:02:30;;;;;;;4.33;2.50;;;;;;;20.72;76.29;101495.31;1685593;83;21555;-76
2021/09/01 09:04:58;;;;;;;2.80;2.40;;;;;;;20.46;76.21;101485.94;1687449;83;21033;-78
2021/09/01 09:07:25;;;;;;;3.12;2.37;;;;;;;20.10;75.92;101493.59;1688398;83;20955;-78
2021/09/01 09:09:52;;;;;;;3.12;2.08;;;;;;;19.84;75.92;101493.80;1678697;83;20878;-78
2021/09/01 09:12:29;;;;;;;2.77;2.15;;;;;;;19.70;75.91;101498.77;1698372;83;20931;-79
2021/09/01 09:14:56;;;;;;;3.20;2.27;;;;;;;19.55;75.66;101505.94;1640896;84;20973;-79
2021/09/01 09:17:23;;;;;;;3.17;1.90;;;;;;;19.37;75.57;101507.00;1685825;83;20897;-79
2021/09/01 09:20:04;;;;;;;4.75;2.52;;;;;;;19.34;75.53;101507.58;1662940;83;21479;-79
2021/09/01 09:22:36;;;;;;;2.72;2.02;;;;;;;19.24;75.24;101507.07;1685923;83;20890;-79
2021/09/01 09:25:19;;;;;;;3.27;2.35;;;;;;;19.13;75.10;101510.58;1659694;83;21407;-79
2021/09/01 09:27:52;;;;;;;2.50;2.20;;;;;;;19.08;75.02;101518.62;1714701;83;20911;-79
2021/09/01 09:30:36;;;;;;;3.45;2.40;;;;;;;19.01;74.84;101518.89;1665447;84;21150;-80
2021/09/01 09:33:13;;;;;;;2.27;1.98;;;;;;;18.98;74.70;101512.45;1678191;83;20937;-79
2021/09/01 09:36:03;;;;;;;6.78;2.35;;;;;;;18.93;74.50;101510.45;1635122;86;21476;-79
2021/09/01 09:38:41;;;;;;;3.47;2.37;;;;;;;18.95;74.55;101507.32;1646683;85;21008;-79
2021/09/01 09:41:27;;;;;;;4.42;2.17;;;;;;;18.92;74.22;101496.95;1642810;85;21033;-79
2021/09/01 09:43:56;;;;;;;3.35;2.52;;;;;;;18.92;74.19;101505.67;1648191;85;20930;-79
2021/09/01 09:46:26;;;;;;;4.67;2.22;;;;;;;18.97;74.01;101510.28;1642641;85;21422;-79
2021/09/01 09:48:55;;;;;;;2.35;1.92;;;;;;;19.00;74.01;101512.80;1617312;86;20936;-79
2021/09/01 09:51:38;;;;;;;4.97;2.12;;;;;;;18.96;73.71;101510.34;1610849;87;20914;-79
2021/09/01 09:54:20;;;;;;;4.43;2.27;;;;;;;18.93;73.64;101507.83;1611001;87;21013;-79
2021/09/01 09:56:48;;;;;;;2.92;2.10;;;;;;;18.98;73.67;101508.52;1589382;88;21004;-79
2021/09/01 09:59:21;;;;;;;5.05;1.95;;;;;;;19.03;73.55;101505.27;1591678;88;20946;-79
2021/09/01 10:01:49;;;;;;;2.77;2.20;;;;;;;19.10;73.46;101514.63;1605124;87;20982;-79
2021/09/01 10:04:15;;;;;;;2.33;1.95;;;;;;;19.17;73.39;101512.17;1590066;88;20978;-79
2021/09/01 10:06:42;;;;;;;3.80;2.22;;;;;;;19.19;73.23;101511.66;1597406;87;21050;-79
2021/09/01 10:09:10;;;;;;;5.05;2.50;;;;;;;19.18;73.06;101508.19;1610833;87;21556;-79
2021/09/01 10:11:49;;;;;;;3.08;2.20;;;;;;;19.17;72.92;101509.55;1601002;88;21011;-79
2021/09/01 10:14:21;;;;;;;2.83;2.08;;;;;;;19.09;72.78;101515.08;1631643;84;20961;-79
2021/09/01 10:16:53;;;;;;;5.70;2.60;;;;;;;19.01;72.80;101514.97;1656845;84;20922;-79
2021/09/01 10:19:24;;;;;;;2.45;1.85;;;;;;;18.94;72.71;101519.57;1661691;84;20893;-79
2021/09/01 10:22:04;;;;;;;3.77;2.30;;;;;;;18.92;72.53;101523.16;1634021;86;21052;-79
2021/09/01 10:24:37;;;;;;;2.85;1.90;;;;;;;18.82;72.56;101520.86;1654846;84;21100;-79
2021/09/01 10:27:19;;;;;;;2.20;1.82;;;;;;;18.80;72.57;101515.28;1657488;84;21072;-79
2021/09/01 10:29:58;;;;;;;2.27;1.70;;;;;;;18.83;72.51;101514.72;1657569;85;20926;-79
2021/09/01 10:32:32;;;;;;;4.35;2.20;;;;;;;18.92;72.56;101517.45;1618462;86;20981;-79
2021/09/01 10:35:16;;;;;;;2.12;1.90;;;;;;;19.04;72.50;101513.54;1621548;86;21509;-79
2021/09/01 10:37:53;;;;;;;2.67;2.02;;;;;;;19.08;72.29;101512.52;1650976;84;21140;-79
2021/09/01 10:40:31;;;;;;;4.75;1.87;;;;;;;19.09;72.02;101522.95;1634165;84;21553;-79
2021/09/01 10:43:00;;;;;;;4.12;2.20;;;;;;;19.08;72.00;101528.25;1658673;84;21632;-79
2021/09/01 10:45:37;;;;;;;2.37;1.67;;;;;;;19.09;71.93;101533.43;1631117;84;20934;-79
2021/09/01 10:48:07;;;;;;;3.12;2.20;;;;;;;19.09;71.77;101530.81;1634173;84;21499;-79
2021/09/01 10:50:44;;;;;;;2.40;1.50;;;;;;;19.09;71.65;101541.30;1664778;85;21379;-79
2021/09/01 10:53:25;;;;;;;2.58;2.12;;;;;;;19.05;71.49;101537.53;1664389;85;22261;-79
2021/09/01 10:56:14;;;;;;;3.15;1.87;;;;;;;19.02;71.46;101528.02;1666097;85;21495;-79
2021/09/01 10:58:47;;;;;;;2.83;2.08;;;;;;;19.08;71.43;101527.80;1655227;85;25711;-80
2021/09/01 11:01:22;;;;;;;2.98;1.92;;;;;;;19.12;71.24;101524.14;1643073;86;21140;-80
2021/09/01 11:03:52;;;;;;;4.37;2.37;;;;;;;19.14;71.27;101518.84;1634769;86;21028;-80
2021/09/01 11:06:24;;;;;;;3.20;2.00;;;;;;;19.18;71.19;101523.92;1632956;86;21090;-80
2021/09/01 11:09:14;;;;;;;3.87;1.98;;;;;;;19.21;71.07;101529.96;1638085;85;21068;-79
2021/09/01 11:11:53;;;;;;;4.05;1.57;;;;;;;19.26;70.85;101521.44;1642158;85;20951;-79
2021/09/01 11:14:46;;;;;;;4.20;2.30;;;;;;;19.26;70.93;101527.99;1639164;85;20949;-79
2021/09/01 11:17:16;;;;;;;1.80;1.70;;;;;;;19.25;70.83;101534.15;1635211;86;20929;-78
2021/09/01 11:19:45;;;;;;;3.20;1.75;;;;;;;19.18;70.79;101537.03;1618100;86;20954;-80
2021/09/01 11:22:14;;;;;;;2.17;1.77;;;;;;;19.24;70.94;101536.38;1641699;86;20984;-80
2021/09/01 11:25:06;;;;;;;2.20;1.82;;;;;;;19.37;70.91;101537.63;1637022;86;21057;-79
2021/09/01 11:27:36;;;;;;;3.50;2.00;;;;;;;19.55;70.78;101541.35;1635155;86;20985;-79
2021/09/01 11:30:10;;;;;;;3.40;1.98;;;;;;;19.65;70.50;101551.44;1649265;86;20954;-79
2021/09/01 11:32:40;;;;;;;3.30;1.60;;;;;;;19.68;70.39;101557.02;1636022;86;20984;-79